sensor_id;sensor_type;location;lat;lon;timestamp;temperature;humidity
22645;DHT22;11489;50.834;6.752;2023-03-03T00:01:28;1.00;80.90
22645;DHT22;11489;50.834;6.752;2023-03-03T00:03:55;1.00;80.90
22645;DHT22;11489;50.834;6.752;2023-03-03T00:06:21;0.90;80.90
22645;DHT22;11489;50.834;6.752;2023-03-03T00:08:48;0.90;81.00
22645;DHT22;11489;50.834;6.752;2023-03-03T00:11:14;0.90;81.10
22645;DHT22;11489;50.834;6.752;2023-03-03T00:13:50;0.90;81.20
22645;DHT22;11489;50.834;6.752;2023-03-03T00:16:25;0.80;81.40
22645;DHT22;11489;50.834;6.752;2023-03-03T00:18:53;0.80;81.50
22645;DHT22;11489;50.834;6.752;2023-03-03T00:21:32;0.80;81.40
22645;DHT22;11489;50.834;6.752;2023-03-03T00:26:40;0.80;81.60
22645;DHT22;11489;50.834;6.752;2023-03-03T00:31:49;0.80;82.20
22645;DHT22;11489;50.834;6.752;2023-03-03T00:36:45;0.70;82.00
22645;DHT22;11489;50.834;6.752;2023-03-03T00:39:30;0.70;81.90
22645;DHT22;11489;50.834;6.752;2023-03-03T00:41:58;0.60;82.10
22645;DHT22;11489;50.834;6.752;2023-03-03T00:44:33;0.60;81.80
22645;DHT22;11489;50.834;6.752;2023-03-03T00:47:27;0.50;81.90
22645;DHT22;11489;50.834;6.752;2023-03-03T00:49:54;0.50;82.30
22645;DHT22;11489;50.834;6.752;2023-03-03T00:52:20;0.50;82.20
22645;DHT22;11489;50.834;6.752;2023-03-03T00:54:49;0.40;82.30
22645;DHT22;11489;50.834;6.752;2023-03-03T00:57:15;0.40;82.40
22645;DHT22;11489;50.834;6.752;2023-03-03T00:59:40;0.40;82.40
22645;DHT22;11489;50.834;6.752;2023-03-03T01:02:06;0.30;82.30
22645;DHT22;11489;50.834;6.752;2023-03-03T01:04:32;0.30;82.30
22645;DHT22;11489;50.834;6.752;2023-03-03T01:06:57;0.20;82.20
22645;DHT22;11489;50.834;6.752;2023-03-03T01:09:23;0.20;82.20
22645;DHT22;11489;50.834;6.752;2023-03-03T01:11:49;0.20;82.20
22645;DHT22;11489;50.834;6.752;2023-03-03T01:14:15;0.10;82.20
22645;DHT22;11489;50.834;6.752;2023-03-03T01:16:41;0.10;82.90
22645;DHT22;11489;50.834;6.752;2023-03-03T01:19:07;0.00;82.40
22645;DHT22;11489;50.834;6.752;2023-03-03T01:21:33;0.00;82.70
22645;DHT22;11489;50.834;6.752;2023-03-03T01:23:59;-0.10;82.60
22645;DHT22;11489;50.834;6.752;2023-03-03T01:26:25;-0.10;82.50
22645;DHT22;11489;50.834;6.752;2023-03-03T01:28:50;-0.20;82.50
22645;DHT22;11489;50.834;6.752;2023-03-03T01:31:16;-0.20;82.50
22645;DHT22;11489;50.834;6.752;2023-03-03T01:33:42;-0.30;82.60
22645;DHT22;11489;50.834;6.752;2023-03-03T01:36:08;-0.40;82.60
22645;DHT22;11489;50.834;6.752;2023-03-03T01:38:37;-0.40;82.70
22645;DHT22;11489;50.834;6.752;2023-03-03T01:41:04;-0.50;82.80
22645;DHT22;11489;50.834;6.752;2023-03-03T01:43:31;-0.50;82.90
22645;DHT22;11489;50.834;6.752;2023-03-03T01:48:31;-0.60;83.00
22645;DHT22;11489;50.834;6.752;2023-03-03T01:53:36;-0.70;83.10
22645;DHT22;11489;50.834;6.752;2023-03-03T01:56:05;-0.70;83.30
22645;DHT22;11489;50.834;6.752;2023-03-03T01:58:35;-0.80;83.20
22645;DHT22;11489;50.834;6.752;2023-03-03T02:01:08;-0.80;83.40
22645;DHT22;11489;50.834;6.752;2023-03-03T02:03:34;-0.90;83.50
22645;DHT22;11489;50.834;6.752;2023-03-03T02:06:05;-0.90;83.50
22645;DHT22;11489;50.834;6.752;2023-03-03T02:09:01;-0.90;83.60
22645;DHT22;11489;50.834;6.752;2023-03-03T02:11:30;-0.90;84.00
22645;DHT22;11489;50.834;6.752;2023-03-03T02:13:57;-1.00;83.70
22645;DHT22;11489;50.834;6.752;2023-03-03T02:16:22;-1.00;83.70
22645;DHT22;11489;50.834;6.752;2023-03-03T02:18:48;-1.10;83.70
22645;DHT22;11489;50.834;6.752;2023-03-03T02:21:16;-1.10;83.90
22645;DHT22;11489;50.834;6.752;2023-03-03T02:26:12;-1.10;84.30
22645;DHT22;11489;50.834;6.752;2023-03-03T02:28:39;-1.10;84.60
22645;DHT22;11489;50.834;6.752;2023-03-03T02:31:08;-1.10;84.90
22645;DHT22;11489;50.834;6.752;2023-03-03T02:33:41;-1.10;85.30
22645;DHT22;11489;50.834;6.752;2023-03-03T02:36:29;-1.00;85.60
22645;DHT22;11489;50.834;6.752;2023-03-03T02:39:09;-1.00;85.90
22645;DHT22;11489;50.834;6.752;2023-03-03T02:42:12;-0.80;86.40
22645;DHT22;11489;50.834;6.752;2023-03-03T02:44:40;-0.70;86.80
22645;DHT22;11489;50.834;6.752;2023-03-03T02:47:06;-0.60;86.70
22645;DHT22;11489;50.834;6.752;2023-03-03T02:49:34;-0.50;86.80
22645;DHT22;11489;50.834;6.752;2023-03-03T02:52:02;-0.50;86.70
22645;DHT22;11489;50.834;6.752;2023-03-03T02:54:29;-0.40;86.80
22645;DHT22;11489;50.834;6.752;2023-03-03T02:56:56;-0.30;86.50
22645;DHT22;11489;50.834;6.752;2023-03-03T02:59:21;-0.20;86.70
22645;DHT22;11489;50.834;6.752;2023-03-03T03:01:48;-0.10;86.90
22645;DHT22;11489;50.834;6.752;2023-03-03T03:04:20;-0.10;87.10
22645;DHT22;11489;50.834;6.752;2023-03-03T03:06:45;0.00;86.70
22645;DHT22;11489;50.834;6.752;2023-03-03T03:09:12;0.10;86.70
22645;DHT22;11489;50.834;6.752;2023-03-03T03:11:38;0.10;86.60
22645;DHT22;11489;50.834;6.752;2023-03-03T03:14:05;0.20;86.60
22645;DHT22;11489;50.834;6.752;2023-03-03T03:16:31;0.30;86.70
22645;DHT22;11489;50.834;6.752;2023-03-03T03:18:59;0.30;86.70
22645;DHT22;11489;50.834;6.752;2023-03-03T03:21:25;0.30;86.70
22645;DHT22;11489;50.834;6.752;2023-03-03T03:23:50;0.40;86.80
22645;DHT22;11489;50.834;6.752;2023-03-03T03:26:16;0.40;86.80
22645;DHT22;11489;50.834;6.752;2023-03-03T03:28:42;0.50;86.70
22645;DHT22;11489;50.834;6.752;2023-03-03T03:31:09;0.50;86.90
22645;DHT22;11489;50.834;6.752;2023-03-03T03:33:35;0.60;86.90
22645;DHT22;11489;50.834;6.752;2023-03-03T03:36:00;0.60;86.90
22645;DHT22;11489;50.834;6.752;2023-03-03T03:38:27;0.70;87.10
22645;DHT22;11489;50.834;6.752;2023-03-03T03:40:54;0.70;87.10
22645;DHT22;11489;50.834;6.752;2023-03-03T03:43:20;0.80;87.80
22645;DHT22;11489;50.834;6.752;2023-03-03T03:45:46;0.80;87.10
22645;DHT22;11489;50.834;6.752;2023-03-03T03:48:12;0.80;86.90
22645;DHT22;11489;50.834;6.752;2023-03-03T03:50:38;0.80;86.80
22645;DHT22;11489;50.834;6.752;2023-03-03T03:53:05;0.80;86.70
22645;DHT22;11489;50.834;6.752;2023-03-03T03:55:30;0.90;86.80
22645;DHT22;11489;50.834;6.752;2023-03-03T03:57:57;0.90;86.90
22645;DHT22;11489;50.834;6.752;2023-03-03T04:00:23;0.90;86.80
22645;DHT22;11489;50.834;6.752;2023-03-03T04:02:49;0.90;86.70
22645;DHT22;11489;50.834;6.752;2023-03-03T04:05:15;0.90;86.60
22645;DHT22;11489;50.834;6.752;2023-03-03T04:07:41;0.90;86.70
22645;DHT22;11489;50.834;6.752;2023-03-03T04:10:07;0.90;86.50
22645;DHT22;11489;50.834;6.752;2023-03-03T04:12:33;1.00;86.60
22645;DHT22;11489;50.834;6.752;2023-03-03T04:15:11;0.90;86.60
22645;DHT22;11489;50.834;6.752;2023-03-03T04:17:37;0.90;86.50
22645;DHT22;11489;50.834;6.752;2023-03-03T04:20:04;0.90;86.60
22645;DHT22;11489;50.834;6.752;2023-03-03T04:22:30;0.90;86.50
22645;DHT22;11489;50.834;6.752;2023-03-03T04:25:02;0.90;86.50
22645;DHT22;11489;50.834;6.752;2023-03-03T04:27:33;0.90;86.50
22645;DHT22;11489;50.834;6.752;2023-03-03T04:30:00;0.90;86.50
22645;DHT22;11489;50.834;6.752;2023-03-03T04:32:26;0.90;86.50
22645;DHT22;11489;50.834;6.752;2023-03-03T04:34:52;0.90;86.60
22645;DHT22;11489;50.834;6.752;2023-03-03T04:37:18;0.90;86.70
22645;DHT22;11489;50.834;6.752;2023-03-03T04:39:44;0.90;86.60
22645;DHT22;11489;50.834;6.752;2023-03-03T04:42:10;0.80;86.50
22645;DHT22;11489;50.834;6.752;2023-03-03T04:44:35;0.90;86.60
22645;DHT22;11489;50.834;6.752;2023-03-03T04:47:01;0.90;86.80
22645;DHT22;11489;50.834;6.752;2023-03-03T04:49:27;0.90;86.90
22645;DHT22;11489;50.834;6.752;2023-03-03T04:51:53;0.90;87.00
22645;DHT22;11489;50.834;6.752;2023-03-03T04:54:18;0.90;86.90
22645;DHT22;11489;50.834;6.752;2023-03-03T04:56:44;0.90;86.90
22645;DHT22;11489;50.834;6.752;2023-03-03T04:59:09;0.90;86.90
22645;DHT22;11489;50.834;6.752;2023-03-03T05:01:35;0.90;86.90
22645;DHT22;11489;50.834;6.752;2023-03-03T05:04:01;0.90;87.10
22645;DHT22;11489;50.834;6.752;2023-03-03T05:06:27;0.90;87.40
22645;DHT22;11489;50.834;6.752;2023-03-03T05:08:52;0.90;87.20
22645;DHT22;11489;50.834;6.752;2023-03-03T05:11:18;0.90;87.90
22645;DHT22;11489;50.834;6.752;2023-03-03T05:13:43;0.90;87.40
22645;DHT22;11489;50.834;6.752;2023-03-03T05:16:10;1.00;87.20
22645;DHT22;11489;50.834;6.752;2023-03-03T05:18:36;1.00;87.30
22645;DHT22;11489;50.834;6.752;2023-03-03T05:21:02;0.90;87.20
22645;DHT22;11489;50.834;6.752;2023-03-03T05:23:28;0.90;87.20
22645;DHT22;11489;50.834;6.752;2023-03-03T05:25:54;0.90;87.40
22645;DHT22;11489;50.834;6.752;2023-03-03T05:28:20;0.90;87.40
22645;DHT22;11489;50.834;6.752;2023-03-03T05:30:46;0.90;87.50
22645;DHT22;11489;50.834;6.752;2023-03-03T05:33:14;0.90;87.60
22645;DHT22;11489;50.834;6.752;2023-03-03T05:35:40;0.90;87.60
22645;DHT22;11489;50.834;6.752;2023-03-03T05:38:05;1.00;87.60
22645;DHT22;11489;50.834;6.752;2023-03-03T05:40:31;1.00;87.50
22645;DHT22;11489;50.834;6.752;2023-03-03T05:42:57;1.00;87.50
22645;DHT22;11489;50.834;6.752;2023-03-03T05:45:23;0.90;87.60
22645;DHT22;11489;50.834;6.752;2023-03-03T05:47:52;1.00;87.80
22645;DHT22;11489;50.834;6.752;2023-03-03T05:50:20;1.00;87.90
22645;DHT22;11489;50.834;6.752;2023-03-03T05:52:50;1.00;87.80
22645;DHT22;11489;50.834;6.752;2023-03-03T05:55:16;1.00;87.70
22645;DHT22;11489;50.834;6.752;2023-03-03T05:57:41;1.00;87.70
22645;DHT22;11489;50.834;6.752;2023-03-03T06:00:08;1.00;87.70
22645;DHT22;11489;50.834;6.752;2023-03-03T06:02:34;1.00;87.70
22645;DHT22;11489;50.834;6.752;2023-03-03T06:05:00;1.00;87.70
22645;DHT22;11489;50.834;6.752;2023-03-03T06:07:26;1.00;87.80
22645;DHT22;11489;50.834;6.752;2023-03-03T06:09:51;1.00;87.60
22645;DHT22;11489;50.834;6.752;2023-03-03T06:12:17;1.00;87.60
22645;DHT22;11489;50.834;6.752;2023-03-03T06:14:43;1.00;87.70
22645;DHT22;11489;50.834;6.752;2023-03-03T06:17:08;1.00;87.80
22645;DHT22;11489;50.834;6.752;2023-03-03T06:19:35;1.00;87.80
22645;DHT22;11489;50.834;6.752;2023-03-03T06:22:01;1.00;87.80
22645;DHT22;11489;50.834;6.752;2023-03-03T06:24:27;1.00;87.90
22645;DHT22;11489;50.834;6.752;2023-03-03T06:26:58;1.00;87.90
22645;DHT22;11489;50.834;6.752;2023-03-03T06:29:24;1.00;87.90
22645;DHT22;11489;50.834;6.752;2023-03-03T06:31:49;1.10;88.00
22645;DHT22;11489;50.834;6.752;2023-03-03T06:34:15;1.00;87.90
22645;DHT22;11489;50.834;6.752;2023-03-03T06:36:41;1.10;87.80
22645;DHT22;11489;50.834;6.752;2023-03-03T06:39:06;1.00;88.70
22645;DHT22;11489;50.834;6.752;2023-03-03T06:41:32;1.00;88.00
22645;DHT22;11489;50.834;6.752;2023-03-03T06:43:58;1.10;88.10
22645;DHT22;11489;50.834;6.752;2023-03-03T06:46:25;1.10;88.00
22645;DHT22;11489;50.834;6.752;2023-03-03T06:48:51;1.10;87.90
22645;DHT22;11489;50.834;6.752;2023-03-03T06:51:24;1.10;87.80
22645;DHT22;11489;50.834;6.752;2023-03-03T06:53:57;1.10;87.80
22645;DHT22;11489;50.834;6.752;2023-03-03T06:56:25;1.10;87.80
22645;DHT22;11489;50.834;6.752;2023-03-03T06:58:59;1.10;87.70
22645;DHT22;11489;50.834;6.752;2023-03-03T07:01:31;1.10;87.70
22645;DHT22;11489;50.834;6.752;2023-03-03T07:03:58;1.10;87.70
22645;DHT22;11489;50.834;6.752;2023-03-03T07:06:25;1.00;87.70
22645;DHT22;11489;50.834;6.752;2023-03-03T07:08:53;1.00;87.80
22645;DHT22;11489;50.834;6.752;2023-03-03T07:11:21;1.00;87.90
22645;DHT22;11489;50.834;6.752;2023-03-03T07:13:49;1.00;88.00
22645;DHT22;11489;50.834;6.752;2023-03-03T07:16:16;1.00;88.10
22645;DHT22;11489;50.834;6.752;2023-03-03T07:18:54;1.00;88.20
22645;DHT22;11489;50.834;6.752;2023-03-03T07:21:25;1.00;88.20
22645;DHT22;11489;50.834;6.752;2023-03-03T07:23:55;1.00;88.10
22645;DHT22;11489;50.834;6.752;2023-03-03T07:26:28;1.00;88.10
22645;DHT22;11489;50.834;6.752;2023-03-03T07:29:00;1.00;88.10
22645;DHT22;11489;50.834;6.752;2023-03-03T07:31:38;1.10;88.30
22645;DHT22;11489;50.834;6.752;2023-03-03T07:36:42;1.10;88.50
22645;DHT22;11489;50.834;6.752;2023-03-03T07:39:20;1.10;88.40
22645;DHT22;11489;50.834;6.752;2023-03-03T07:41:48;1.10;88.50
22645;DHT22;11489;50.834;6.752;2023-03-03T07:44:30;1.20;88.50
22645;DHT22;11489;50.834;6.752;2023-03-03T07:47:31;1.20;88.40
22645;DHT22;11489;50.834;6.752;2023-03-03T07:50:15;1.20;88.50
22645;DHT22;11489;50.834;6.752;2023-03-03T07:52:48;1.20;88.40
22645;DHT22;11489;50.834;6.752;2023-03-03T07:57:56;1.20;88.50
22645;DHT22;11489;50.834;6.752;2023-03-03T08:05:39;1.30;88.80
22645;DHT22;11489;50.834;6.752;2023-03-03T08:10:46;1.30;89.00
22645;DHT22;11489;50.834;6.752;2023-03-03T08:13:21;1.30;89.00
22645;DHT22;11489;50.834;6.752;2023-03-03T08:18:46;1.40;89.00
22645;DHT22;11489;50.834;6.752;2023-03-03T08:23:39;1.50;89.00
22645;DHT22;11489;50.834;6.752;2023-03-03T08:26:05;1.50;88.90
22645;DHT22;11489;50.834;6.752;2023-03-03T08:28:31;1.50;89.00
22645;DHT22;11489;50.834;6.752;2023-03-03T08:30:57;1.50;89.00
22645;DHT22;11489;50.834;6.752;2023-03-03T08:33:22;1.50;88.90
22645;DHT22;11489;50.834;6.752;2023-03-03T08:35:48;1.60;88.90
22645;DHT22;11489;50.834;6.752;2023-03-03T08:38:16;1.60;88.70
22645;DHT22;11489;50.834;6.752;2023-03-03T08:40:43;1.60;88.70
22645;DHT22;11489;50.834;6.752;2023-03-03T08:43:09;1.60;88.80
22645;DHT22;11489;50.834;6.752;2023-03-03T08:45:35;1.60;88.80
22645;DHT22;11489;50.834;6.752;2023-03-03T08:48:01;1.60;88.80
22645;DHT22;11489;50.834;6.752;2023-03-03T08:50:29;1.70;88.90
22645;DHT22;11489;50.834;6.752;2023-03-03T08:52:55;1.70;89.60
22645;DHT22;11489;50.834;6.752;2023-03-03T08:55:21;1.70;88.90
22645;DHT22;11489;50.834;6.752;2023-03-03T08:57:47;1.70;88.90
22645;DHT22;11489;50.834;6.752;2023-03-03T09:00:15;1.70;88.80
22645;DHT22;11489;50.834;6.752;2023-03-03T09:02:41;1.70;88.80
22645;DHT22;11489;50.834;6.752;2023-03-03T09:05:08;1.70;88.80
22645;DHT22;11489;50.834;6.752;2023-03-03T09:07:34;1.70;88.80
22645;DHT22;11489;50.834;6.752;2023-03-03T09:10:00;1.70;88.80
22645;DHT22;11489;50.834;6.752;2023-03-03T09:12:38;1.70;88.90
22645;DHT22;11489;50.834;6.752;2023-03-03T09:17:50;1.80;89.00
22645;DHT22;11489;50.834;6.752;2023-03-03T09:20:32;1.80;89.10
22645;DHT22;11489;50.834;6.752;2023-03-03T09:26:26;1.90;89.20
22645;DHT22;11489;50.834;6.752;2023-03-03T09:29:22;1.90;89.20
22645;DHT22;11489;50.834;6.752;2023-03-03T09:32:00;1.90;89.20
22645;DHT22;11489;50.834;6.752;2023-03-03T09:34:37;2.00;89.40
22645;DHT22;11489;50.834;6.752;2023-03-03T09:37:20;2.00;89.90
22645;DHT22;11489;50.834;6.752;2023-03-03T09:39:49;2.10;89.00
22645;DHT22;11489;50.834;6.752;2023-03-03T09:48:04;2.10;89.00
22645;DHT22;11489;50.834;6.752;2023-03-03T09:50:44;2.10;89.00
22645;DHT22;11489;50.834;6.752;2023-03-03T09:53:41;2.10;89.00
22645;DHT22;11489;50.834;6.752;2023-03-03T09:56:27;2.20;89.60
22645;DHT22;11489;50.834;6.752;2023-03-03T10:04:27;2.30;89.30
22645;DHT22;11489;50.834;6.752;2023-03-03T10:09:31;2.40;89.40
22645;DHT22;11489;50.834;6.752;2023-03-03T10:12:19;2.40;89.20
22645;DHT22;11489;50.834;6.752;2023-03-03T10:15:03;2.40;89.00
22645;DHT22;11489;50.834;6.752;2023-03-03T10:17:55;2.50;89.20
22645;DHT22;11489;50.834;6.752;2023-03-03T10:26:16;2.60;88.90
22645;DHT22;11489;50.834;6.752;2023-03-03T10:28:58;2.60;88.90
22645;DHT22;11489;50.834;6.752;2023-03-03T10:34:43;2.70;89.00
22645;DHT22;11489;50.834;6.752;2023-03-03T10:37:23;2.70;88.80
22645;DHT22;11489;50.834;6.752;2023-03-03T10:42:45;2.80;89.10
22645;DHT22;11489;50.834;6.752;2023-03-03T10:54:02;3.00;88.80
22645;DHT22;11489;50.834;6.752;2023-03-03T10:57:03;3.00;89.10
22645;DHT22;11489;50.834;6.752;2023-03-03T11:02:37;3.10;89.00
22645;DHT22;11489;50.834;6.752;2023-03-03T11:08:00;3.30;89.50
22645;DHT22;11489;50.834;6.752;2023-03-03T11:10:51;3.40;89.30
22645;DHT22;11489;50.834;6.752;2023-03-03T11:13:45;3.40;89.00
22645;DHT22;11489;50.834;6.752;2023-03-03T11:19:24;3.50;88.40
22645;DHT22;11489;50.834;6.752;2023-03-03T11:24:45;3.60;88.60
22645;DHT22;11489;50.834;6.752;2023-03-03T11:27:26;3.60;88.50
22645;DHT22;11489;50.834;6.752;2023-03-03T11:32:57;3.70;88.20
22645;DHT22;11489;50.834;6.752;2023-03-03T11:35:44;3.70;88.20
22645;DHT22;11489;50.834;6.752;2023-03-03T11:40:54;3.80;88.40
22645;DHT22;11489;50.834;6.752;2023-03-03T11:43:31;3.80;88.50
22645;DHT22;11489;50.834;6.752;2023-03-03T11:46:25;3.80;88.50
22645;DHT22;11489;50.834;6.752;2023-03-03T11:49:08;3.90;88.20
22645;DHT22;11489;50.834;6.752;2023-03-03T11:51:48;3.90;88.10
22645;DHT22;11489;50.834;6.752;2023-03-03T11:54:22;3.90;87.70
22645;DHT22;11489;50.834;6.752;2023-03-03T11:56:55;3.90;87.80
22645;DHT22;11489;50.834;6.752;2023-03-03T12:02:28;3.90;87.50
22645;DHT22;11489;50.834;6.752;2023-03-03T12:05:05;3.90;88.10
22645;DHT22;11489;50.834;6.752;2023-03-03T12:19:00;4.20;87.60
22645;DHT22;11489;50.834;6.752;2023-03-03T12:21:55;4.20;88.30
22645;DHT22;11489;50.834;6.752;2023-03-03T12:41:39;5.10;87.50
22645;DHT22;11489;50.834;6.752;2023-03-03T12:47:15;5.20;86.30
22645;DHT22;11489;50.834;6.752;2023-03-03T12:53:18;5.10;86.30
22645;DHT22;11489;50.834;6.752;2023-03-03T12:56:04;5.10;85.60
22645;DHT22;11489;50.834;6.752;2023-03-03T12:58:59;5.00;85.70
22645;DHT22;11489;50.834;6.752;2023-03-03T13:04:40;4.90;85.70
22645;DHT22;11489;50.834;6.752;2023-03-03T13:15:23;5.00;86.40
22645;DHT22;11489;50.834;6.752;2023-03-03T13:20:46;5.10;86.70
22645;DHT22;11489;50.834;6.752;2023-03-03T13:23:36;5.10;86.40
22645;DHT22;11489;50.834;6.752;2023-03-03T13:26:15;5.20;85.70
22645;DHT22;11489;50.834;6.752;2023-03-03T13:29:08;5.20;85.70
22645;DHT22;11489;50.834;6.752;2023-03-03T13:31:40;5.10;85.90
22645;DHT22;11489;50.834;6.752;2023-03-03T13:36:52;5.10;85.60
22645;DHT22;11489;50.834;6.752;2023-03-03T13:39:22;5.00;85.50
22645;DHT22;11489;50.834;6.752;2023-03-03T13:44:48;5.00;85.50
22645;DHT22;11489;50.834;6.752;2023-03-03T13:47:22;5.00;85.50
22645;DHT22;11489;50.834;6.752;2023-03-03T13:50:22;5.00;85.60
22645;DHT22;11489;50.834;6.752;2023-03-03T13:56:08;5.00;85.50
22645;DHT22;11489;50.834;6.752;2023-03-03T13:59:09;5.00;85.50
22645;DHT22;11489;50.834;6.752;2023-03-03T14:04:52;4.90;85.10
22645;DHT22;11489;50.834;6.752;2023-03-03T14:07:38;4.90;85.70
22645;DHT22;11489;50.834;6.752;2023-03-03T14:10:17;4.90;85.40
22645;DHT22;11489;50.834;6.752;2023-03-03T14:15:30;4.80;85.50
22645;DHT22;11489;50.834;6.752;2023-03-03T14:20:43;4.70;85.50
22645;DHT22;11489;50.834;6.752;2023-03-03T14:23:15;4.70;85.60
22645;DHT22;11489;50.834;6.752;2023-03-03T14:28:20;4.60;85.30
22645;DHT22;11489;50.834;6.752;2023-03-03T14:30:46;4.60;85.70
22645;DHT22;11489;50.834;6.752;2023-03-03T14:35:41;4.60;86.90
22645;DHT22;11489;50.834;6.752;2023-03-03T14:38:19;4.60;86.00
22645;DHT22;11489;50.834;6.752;2023-03-03T14:40:47;4.60;85.60
22645;DHT22;11489;50.834;6.752;2023-03-03T14:43:25;4.50;85.80
22645;DHT22;11489;50.834;6.752;2023-03-03T14:45:52;4.60;85.80
22645;DHT22;11489;50.834;6.752;2023-03-03T14:48:21;4.60;86.00
22645;DHT22;11489;50.834;6.752;2023-03-03T14:50:55;4.60;86.10
22645;DHT22;11489;50.834;6.752;2023-03-03T14:53:37;4.60;85.90
22645;DHT22;11489;50.834;6.752;2023-03-03T14:56:28;4.50;85.70
22645;DHT22;11489;50.834;6.752;2023-03-03T14:59:18;4.50;85.30
22645;DHT22;11489;50.834;6.752;2023-03-03T15:01:45;4.50;85.50
22645;DHT22;11489;50.834;6.752;2023-03-03T15:06:43;4.40;85.40
22645;DHT22;11489;50.834;6.752;2023-03-03T15:11:59;4.50;85.60
22645;DHT22;11489;50.834;6.752;2023-03-03T15:14:31;4.50;86.30
22645;DHT22;11489;50.834;6.752;2023-03-03T15:17:23;4.50;85.90
22645;DHT22;11489;50.834;6.752;2023-03-03T15:25:05;4.50;85.70
22645;DHT22;11489;50.834;6.752;2023-03-03T15:28:05;4.50;85.80
22645;DHT22;11489;50.834;6.752;2023-03-03T15:30:48;4.50;85.40
22645;DHT22;11489;50.834;6.752;2023-03-03T15:36:09;4.50;85.50
22645;DHT22;11489;50.834;6.752;2023-03-03T15:39:10;4.50;85.60
22645;DHT22;11489;50.834;6.752;2023-03-03T15:41:46;4.50;85.10
22645;DHT22;11489;50.834;6.752;2023-03-03T15:44:45;4.50;85.60
22645;DHT22;11489;50.834;6.752;2023-03-03T15:50:25;4.60;85.70
22645;DHT22;11489;50.834;6.752;2023-03-03T15:53:13;4.60;85.40
22645;DHT22;11489;50.834;6.752;2023-03-03T15:58:18;4.50;85.60
22645;DHT22;11489;50.834;6.752;2023-03-03T16:01:16;4.60;85.80
22645;DHT22;11489;50.834;6.752;2023-03-03T16:03:53;4.50;85.30
22645;DHT22;11489;50.834;6.752;2023-03-03T16:11:44;4.40;85.20
22645;DHT22;11489;50.834;6.752;2023-03-03T16:16:57;4.30;84.90
22645;DHT22;11489;50.834;6.752;2023-03-03T16:22:10;4.30;84.90
22645;DHT22;11489;50.834;6.752;2023-03-03T16:24:46;4.20;85.00
22645;DHT22;11489;50.834;6.752;2023-03-03T16:27:39;4.20;84.90
22645;DHT22;11489;50.834;6.752;2023-03-03T16:35:41;3.90;84.50
22645;DHT22;11489;50.834;6.752;2023-03-03T16:38:13;3.90;84.30
22645;DHT22;11489;50.834;6.752;2023-03-03T16:40:45;3.80;84.20
22645;DHT22;11489;50.834;6.752;2023-03-03T16:46:28;3.70;84.00
22645;DHT22;11489;50.834;6.752;2023-03-03T16:52:13;3.60;84.20
22645;DHT22;11489;50.834;6.752;2023-03-03T17:11:40;3.20;84.20
22645;DHT22;11489;50.834;6.752;2023-03-03T17:30:29;2.50;84.30
22645;DHT22;11489;50.834;6.752;2023-03-03T17:41:25;2.10;84.60
22645;DHT22;11489;50.834;6.752;2023-03-03T17:46:51;2.00;84.60
22645;DHT22;11489;50.834;6.752;2023-03-03T17:49:44;1.90;84.80
22645;DHT22;11489;50.834;6.752;2023-03-03T17:54:58;1.70;84.90
22645;DHT22;11489;50.834;6.752;2023-03-03T17:57:57;1.60;85.00
22645;DHT22;11489;50.834;6.752;2023-03-03T18:05:53;1.40;85.30
22645;DHT22;11489;50.834;6.752;2023-03-03T18:22:23;1.00;85.50
22645;DHT22;11489;50.834;6.752;2023-03-03T18:27:29;0.90;85.50
22645;DHT22;11489;50.834;6.752;2023-03-03T18:36:06;0.70;85.70
22645;DHT22;11489;50.834;6.752;2023-03-03T18:38:24;0.70;85.80
22645;DHT22;11489;50.834;6.752;2023-03-03T18:43:46;0.50;85.80
22645;DHT22;11489;50.834;6.752;2023-03-03T18:57:11;0.20;86.00
22645;DHT22;11489;50.834;6.752;2023-03-03T18:59:38;0.10;86.10
22645;DHT22;11489;50.834;6.752;2023-03-03T19:07:48;0.00;86.00
22645;DHT22;11489;50.834;6.752;2023-03-03T19:18:03;-0.30;86.00
22645;DHT22;11489;50.834;6.752;2023-03-03T19:21:00;-0.40;85.90
22645;DHT22;11489;50.834;6.752;2023-03-03T19:23:57;-0.50;86.10
22645;DHT22;11489;50.834;6.752;2023-03-03T19:34:09;-0.70;86.60
22645;DHT22;11489;50.834;6.752;2023-03-03T19:37:01;-0.80;86.60
22645;DHT22;11489;50.834;6.752;2023-03-03T19:47:53;-1.00;87.00
22645;DHT22;11489;50.834;6.752;2023-03-03T19:50:31;-1.00;87.10
22645;DHT22;11489;50.834;6.752;2023-03-03T19:53:30;-1.00;87.10
22645;DHT22;11489;50.834;6.752;2023-03-03T20:01:13;-1.20;86.90
22645;DHT22;11489;50.834;6.752;2023-03-03T20:10:00;-1.30;87.10
22645;DHT22;11489;50.834;6.752;2023-03-03T20:15:22;-1.40;87.20
22645;DHT22;11489;50.834;6.752;2023-03-03T20:20:58;-1.50;87.10
22645;DHT22;11489;50.834;6.752;2023-03-03T20:29:02;-1.60;87.40
22645;DHT22;11489;50.834;6.752;2023-03-03T20:41:57;-1.70;87.80
22645;DHT22;11489;50.834;6.752;2023-03-03T20:58:41;-1.80;88.40
22645;DHT22;11489;50.834;6.752;2023-03-03T21:01:26;-1.80;88.30
22645;DHT22;11489;50.834;6.752;2023-03-03T21:06:46;-1.80;88.80
22645;DHT22;11489;50.834;6.752;2023-03-03T21:09:42;-1.80;88.90
22645;DHT22;11489;50.834;6.752;2023-03-03T21:15:24;-1.70;89.50
22645;DHT22;11489;50.834;6.752;2023-03-03T21:17:50;-1.70;89.70
22645;DHT22;11489;50.834;6.752;2023-03-03T21:20:22;-1.60;89.80
22645;DHT22;11489;50.834;6.752;2023-03-03T21:22:48;-1.60;90.00
22645;DHT22;11489;50.834;6.752;2023-03-03T21:28:25;-1.40;90.20
22645;DHT22;11489;50.834;6.752;2023-03-03T21:31:12;-1.30;90.20
22645;DHT22;11489;50.834;6.752;2023-03-03T21:33:54;-1.20;90.30
22645;DHT22;11489;50.834;6.752;2023-03-03T21:36:44;-1.20;90.30
22645;DHT22;11489;50.834;6.752;2023-03-03T21:39:28;-1.10;90.40
22645;DHT22;11489;50.834;6.752;2023-03-03T21:44:32;-0.90;90.40
22645;DHT22;11489;50.834;6.752;2023-03-03T21:46:58;-0.80;90.40
22645;DHT22;11489;50.834;6.752;2023-03-03T21:49:24;-0.80;90.40
22645;DHT22;11489;50.834;6.752;2023-03-03T21:51:50;-0.60;90.50
22645;DHT22;11489;50.834;6.752;2023-03-03T21:54:15;-0.60;90.50
22645;DHT22;11489;50.834;6.752;2023-03-03T21:56:41;-0.50;90.50
22645;DHT22;11489;50.834;6.752;2023-03-03T21:59:07;-0.40;90.50
22645;DHT22;11489;50.834;6.752;2023-03-03T22:01:34;-0.30;90.50
22645;DHT22;11489;50.834;6.752;2023-03-03T22:03:59;-0.30;90.50
22645;DHT22;11489;50.834;6.752;2023-03-03T22:06:26;-0.20;90.50
22645;DHT22;11489;50.834;6.752;2023-03-03T22:08:52;-0.10;90.50
22645;DHT22;11489;50.834;6.752;2023-03-03T22:11:17;-0.10;90.50
22645;DHT22;11489;50.834;6.752;2023-03-03T22:13:43;0.00;90.50
22645;DHT22;11489;50.834;6.752;2023-03-03T22:16:08;0.00;90.40
22645;DHT22;11489;50.834;6.752;2023-03-03T22:18:36;0.10;90.80
22645;DHT22;11489;50.834;6.752;2023-03-03T22:21:01;0.10;90.40
22645;DHT22;11489;50.834;6.752;2023-03-03T22:23:27;0.20;90.40
22645;DHT22;11489;50.834;6.752;2023-03-03T22:25:53;0.30;90.40
22645;DHT22;11489;50.834;6.752;2023-03-03T22:28:18;0.30;90.40
22645;DHT22;11489;50.834;6.752;2023-03-03T22:30:44;0.30;90.40
22645;DHT22;11489;50.834;6.752;2023-03-03T22:33:09;0.40;90.40
22645;DHT22;11489;50.834;6.752;2023-03-03T22:35:35;0.40;90.30
22645;DHT22;11489;50.834;6.752;2023-03-03T22:38:01;0.40;90.30